sensor_id;sensor_type;location;lat;lon;timestamp;pressure;altitude;pressure_sealevel;temperature;humidity
70982;BME280;58640;51.320;9.456;2022-10-16T00:01:11;99049.34;;;14.50;100.00
70982;BME280;58640;51.320;9.456;2022-10-16T00:03:38;99058.69;;;14.47;100.00
70982;BME280;58640;51.320;9.456;2022-10-16T00:06:04;99069.50;;;14.47;100.00
70982;BME280;58640;51.320;9.456;2022-10-16T00:08:30;99069.50;;;14.47;100.00
70982;BME280;58640;51.320;9.456;2022-10-16T00:11:06;99054.75;;;14.50;100.00
70982;BME280;58640;51.320;9.456;2022-10-16T00:13:33;99054.94;;;14.55;100.00
70982;BME280;58640;51.320;9.456;2022-10-16T00:16:00;99064.09;;;14.54;100.00
70982;BME280;58640;51.320;9.456;2022-10-16T00:18:26;99064.31;;;14.52;100.00
70982;BME280;58640;51.320;9.456;2022-10-16T00:20:52;99080.13;;;14.55;100.00
70982;BME280;58640;51.320;9.456;2022-10-16T00:23:18;99065.16;;;14.53;100.00
70982;BME280;58640;51.320;9.456;2022-10-16T00:25:43;99066.78;;;14.60;100.00
70982;BME280;58640;51.320;9.456;2022-10-16T00:28:09;99064.50;;;14.57;100.00
70982;BME280;58640;51.320;9.456;2022-10-16T00:30:38;99050.97;;;14.57;100.00
70982;BME280;58640;51.320;9.456;2022-10-16T00:33:03;99061.81;;;14.51;100.00
70982;BME280;58640;51.320;9.456;2022-10-16T00:35:28;99068.50;;;14.48;100.00
70982;BME280;58640;51.320;9.456;2022-10-16T00:37:54;99050.78;;;14.46;100.00
70982;BME280;58640;51.320;9.456;2022-10-16T00:40:19;99061.00;;;14.44;100.00
70982;BME280;58640;51.320;9.456;2022-10-16T00:42:45;99054.97;;;14.48;100.00
70982;BME280;58640;51.320;9.456;2022-10-16T00:45:10;99063.50;;;14.45;100.00
70982;BME280;58640;51.320;9.456;2022-10-16T00:47:42;99055.97;;;14.47;100.00
70982;BME280;58640;51.320;9.456;2022-10-16T00:50:27;99064.31;;;14.52;100.00
70982;BME280;58640;51.320;9.456;2022-10-16T00:52:54;99058.91;;;14.46;100.00
70982;BME280;58640;51.320;9.456;2022-10-16T00:55:20;99059.09;;;14.44;100.00
70982;BME280;58640;51.320;9.456;2022-10-16T00:57:46;99060.38;;;14.42;100.00
70982;BME280;58640;51.320;9.456;2022-10-16T01:00:15;99066.81;;;14.41;100.00
70982;BME280;58640;51.320;9.456;2022-10-16T01:02:41;99066.22;;;14.39;100.00
70982;BME280;58640;51.320;9.456;2022-10-16T01:05:07;99064.53;;;14.38;100.00
70982;BME280;58640;51.320;9.456;2022-10-16T01:07:41;99072.84;;;14.36;100.00
70982;BME280;58640;51.320;9.456;2022-10-16T01:10:31;99058.91;;;14.39;100.00
70982;BME280;58640;51.320;9.456;2022-10-16T01:20:37;99082.22;;;14.34;100.00
70982;BME280;58640;51.320;9.456;2022-10-16T01:23:17;99080.75;;;14.31;100.00
70982;BME280;58640;51.320;9.456;2022-10-16T01:28:52;99085.13;;;14.26;100.00
70982;BME280;58640;51.320;9.456;2022-10-16T01:31:24;99076.78;;;14.21;100.00
70982;BME280;58640;51.320;9.456;2022-10-16T01:33:57;99072.19;;;14.15;100.00
70982;BME280;58640;51.320;9.456;2022-10-16T01:36:31;99079.06;;;14.11;100.00
70982;BME280;58640;51.320;9.456;2022-10-16T01:39:02;99084.47;;;14.11;100.00
70982;BME280;58640;51.320;9.456;2022-10-16T01:41:32;99091.75;;;14.10;100.00
70982;BME280;58640;51.320;9.456;2022-10-16T01:46:24;99082.81;;;14.10;100.00
70982;BME280;58640;51.320;9.456;2022-10-16T01:48:52;99076.34;;;14.11;100.00
70982;BME280;58640;51.320;9.456;2022-10-16T01:51:19;99080.31;;;14.15;100.00
70982;BME280;58640;51.320;9.456;2022-10-16T01:53:49;99086.53;;;14.15;100.00
70982;BME280;58640;51.320;9.456;2022-10-16T01:56:18;99097.78;;;14.19;100.00
70982;BME280;58640;51.320;9.456;2022-10-16T01:58:49;99106.09;;;14.17;100.00
70982;BME280;58640;51.320;9.456;2022-10-16T02:01:19;99093.63;;;14.16;100.00
70982;BME280;58640;51.320;9.456;2022-10-16T02:03:46;99100.28;;;14.14;100.00
70982;BME280;58640;51.320;9.456;2022-10-16T02:06:15;99099.88;;;14.10;100.00
70982;BME280;58640;51.320;9.456;2022-10-16T02:08:41;99097.56;;;14.07;100.00
70982;BME280;58640;51.320;9.456;2022-10-16T02:11:09;99102.16;;;14.07;100.00
70982;BME280;58640;51.320;9.456;2022-10-16T02:13:53;99096.53;;;14.02;100.00
70982;BME280;58640;51.320;9.456;2022-10-16T02:16:20;99100.06;;;13.96;100.00
70982;BME280;58640;51.320;9.456;2022-10-16T02:18:45;99091.53;;;13.99;100.00
70982;BME280;58640;51.320;9.456;2022-10-16T02:21:19;99088.63;;;14.00;100.00
70982;BME280;58640;51.320;9.456;2022-10-16T02:23:56;99077.81;;;14.00;100.00
70982;BME280;58640;51.320;9.456;2022-10-16T02:26:30;99086.75;;;14.01;100.00
70982;BME280;58640;51.320;9.456;2022-10-16T02:29:00;99099.22;;;14.02;100.00
70982;BME280;58640;51.320;9.456;2022-10-16T02:31:32;99102.13;;;13.94;100.00
70982;BME280;58640;51.320;9.456;2022-10-16T02:34:02;99099.44;;;14.00;100.00
70982;BME280;58640;51.320;9.456;2022-10-16T02:36:30;99099.22;;;13.95;100.00
70982;BME280;58640;51.320;9.456;2022-10-16T02:38:57;99102.13;;;13.94;100.00
70982;BME280;58640;51.320;9.456;2022-10-16T02:41:27;99100.03;;;13.89;100.00
70982;BME280;58640;51.320;9.456;2022-10-16T02:43:52;99089.03;;;13.91;100.00
70982;BME280;58640;51.320;9.456;2022-10-16T02:46:18;99095.66;;;13.88;100.00
70982;BME280;58640;51.320;9.456;2022-10-16T02:48:44;99096.06;;;13.79;100.00
70982;BME280;58640;51.320;9.456;2022-10-16T02:51:09;99105.84;;;13.80;100.00
70982;BME280;58640;51.320;9.456;2022-10-16T02:53:35;99102.06;;;13.74;100.00
70982;BME280;58640;51.320;9.456;2022-10-16T02:56:01;99104.78;;;13.74;100.00
70982;BME280;58640;51.320;9.456;2022-10-16T02:58:26;99096.06;;;13.79;100.00
70982;BME280;58640;51.320;9.456;2022-10-16T03:00:51;99108.97;;;13.83;100.00
70982;BME280;58640;51.320;9.456;2022-10-16T03:03:17;99113.53;;;13.83;100.00
70982;BME280;58640;51.320;9.456;2022-10-16T03:05:43;99107.09;;;13.84;100.00
70982;BME280;58640;51.320;9.456;2022-10-16T03:08:11;99110.84;;;13.83;100.00
70982;BME280;58640;51.320;9.456;2022-10-16T03:10:36;99120.78;;;13.76;100.00
70982;BME280;58640;51.320;9.456;2022-10-16T03:13:02;99123.53;;;13.89;100.00
70982;BME280;58640;51.320;9.456;2022-10-16T03:15:27;99116.22;;;13.76;100.00
70982;BME280;58640;51.320;9.456;2022-10-16T03:17:54;99116.88;;;13.78;100.00
70982;BME280;58640;51.320;9.456;2022-10-16T03:20:19;99130.78;;;13.75;100.00
70982;BME280;58640;51.320;9.456;2022-10-16T03:22:45;99131.00;;;13.74;100.00
70982;BME280;58640;51.320;9.456;2022-10-16T03:25:10;99134.28;;;13.69;100.00
70982;BME280;58640;51.320;9.456;2022-10-16T03:27:35;99135.75;;;13.65;100.00
70982;BME280;58640;51.320;9.456;2022-10-16T03:30:02;99137.59;;;13.65;100.00
70982;BME280;58640;51.320;9.456;2022-10-16T03:32:27;99138.00;;;13.62;100.00
70982;BME280;58640;51.320;9.456;2022-10-16T03:34:53;99134.88;;;13.58;100.00
70982;BME280;58640;51.320;9.456;2022-10-16T03:37:19;99133.38;;;13.49;100.00
70982;BME280;58640;51.320;9.456;2022-10-16T03:39:44;99138.97;;;13.41;100.00
70982;BME280;58640;51.320;9.456;2022-10-16T03:42:10;99143.34;;;13.49;100.00
70982;BME280;58640;51.320;9.456;2022-10-16T03:44:35;99148.91;;;13.41;100.00
70982;BME280;58640;51.320;9.456;2022-10-16T03:47:00;99133.72;;;13.33;100.00
70982;BME280;58640;51.320;9.456;2022-10-16T03:49:26;99144.97;;;13.37;100.00
70982;BME280;58640;51.320;9.456;2022-10-16T03:51:51;99150.59;;;13.42;100.00
70982;BME280;58640;51.320;9.456;2022-10-16T03:54:16;99155.75;;;13.30;100.00
70982;BME280;58640;51.320;9.456;2022-10-16T03:56:42;99157.34;;;13.24;100.00
70982;BME280;58640;51.320;9.456;2022-10-16T03:59:07;99145.50;;;13.19;100.00
70982;BME280;58640;51.320;9.456;2022-10-16T04:01:33;99157.72;;;13.15;100.00
70982;BME280;58640;51.320;9.456;2022-10-16T04:03:58;99161.25;;;13.15;100.00
70982;BME280;58640;51.320;9.456;2022-10-16T04:06:23;99154.19;;;13.14;100.00
70982;BME280;58640;51.320;9.456;2022-10-16T04:08:49;99161.25;;;13.15;100.00
70982;BME280;58640;51.320;9.456;2022-10-16T04:11:14;99174.56;;;13.17;100.00
70982;BME280;58640;51.320;9.456;2022-10-16T04:13:39;99166.91;;;13.20;100.00
70982;BME280;58640;51.320;9.456;2022-10-16T04:16:05;99175.00;;;13.20;100.00
70982;BME280;58640;51.320;9.456;2022-10-16T04:18:30;99172.78;;;13.37;100.00
70982;BME280;58640;51.320;9.456;2022-10-16T04:20:56;99173.19;;;13.34;100.00
70982;BME280;58640;51.320;9.456;2022-10-16T04:23:21;99182.31;;;13.27;100.00
70982;BME280;58640;51.320;9.456;2022-10-16T04:25:48;99179.41;;;13.28;100.00
70982;BME280;58640;51.320;9.456;2022-10-16T04:28:13;99169.84;;;13.26;100.00
70982;BME280;58640;51.320;9.456;2022-10-16T04:30:38;99164.25;;;13.27;100.00
70982;BME280;58640;51.320;9.456;2022-10-16T04:33:04;99171.94;;;13.30;100.00
70982;BME280;58640;51.320;9.456;2022-10-16T04:35:29;99172.19;;;13.35;100.00
70982;BME280;58640;51.320;9.456;2022-10-16T04:37:57;99171.00;;;13.51;100.00
70982;BME280;58640;51.320;9.456;2022-10-16T04:40:22;99159.31;;;13.44;100.00
70982;BME280;58640;51.320;9.456;2022-10-16T04:42:48;99168.03;;;13.39;100.00
70982;BME280;58640;51.320;9.456;2022-10-16T04:45:13;99166.19;;;13.40;100.00
70982;BME280;58640;51.320;9.456;2022-10-16T04:47:38;99164.91;;;13.36;100.00
70982;BME280;58640;51.320;9.456;2022-10-16T04:50:04;99168.88;;;13.40;100.00
70982;BME280;58640;51.320;9.456;2022-10-16T04:52:30;99155.38;;;13.40;100.00
70982;BME280;58640;51.320;9.456;2022-10-16T04:54:56;99150.59;;;13.42;100.00
70982;BME280;58640;51.320;9.456;2022-10-16T04:57:25;99156.81;;;13.42;100.00
70982;BME280;58640;51.320;9.456;2022-10-16T04:59:52;99145.41;;;13.40;100.00
70982;BME280;58640;51.320;9.456;2022-10-16T05:02:17;99124.19;;;13.44;100.00
70982;BME280;58640;51.320;9.456;2022-10-16T05:04:42;99120.69;;;13.43;100.00
70982;BME280;58640;51.320;9.456;2022-10-16T05:07:08;99109.88;;;13.43;100.00
70982;BME280;58640;51.320;9.456;2022-10-16T05:09:33;99103.69;;;13.56;100.00
70982;BME280;58640;51.320;9.456;2022-10-16T05:11:58;99131.94;;;13.47;100.00
70982;BME280;58640;51.320;9.456;2022-10-16T05:14:24;99143.75;;;13.46;100.00
70982;BME280;58640;51.320;9.456;2022-10-16T06:12:58;99234.69;;;13.66;100.00
70982;BME280;58640;51.320;9.456;2022-10-16T06:15:24;99228.31;;;13.74;100.00
70982;BME280;58640;51.320;9.456;2022-10-16T06:18:00;99239.91;;;13.68;100.00
70982;BME280;58640;51.320;9.456;2022-10-16T07:12:57;99318.50;;;14.54;87.57
70982;BME280;58640;51.320;9.456;2022-10-16T07:15:22;99326.63;;;14.54;88.00
70982;BME280;58640;51.320;9.456;2022-10-16T07:17:48;99319.56;;;14.53;87.16
70982;BME280;58640;51.320;9.456;2022-10-16T07:20:13;99324.56;;;14.56;85.45
70982;BME280;58640;51.320;9.456;2022-10-16T07:22:39;99326.69;;;14.74;84.83
70982;BME280;58640;51.320;9.456;2022-10-16T07:25:04;99324.41;;;14.71;85.94
70982;BME280;58640;51.320;9.456;2022-10-16T07:27:30;99334.63;;;14.82;86.56
70982;BME280;58640;51.320;9.456;2022-10-16T07:29:55;99333.16;;;14.73;84.56
70982;BME280;58640;51.320;9.456;2022-10-16T07:32:21;99348.75;;;14.71;84.93
70982;BME280;58640;51.320;9.456;2022-10-16T07:34:46;99350.03;;;14.81;84.21
70982;BME280;58640;51.320;9.456;2022-10-16T07:37:11;99354.81;;;14.86;84.80
70982;BME280;58640;51.320;9.456;2022-10-16T07:39:37;99355.03;;;14.84;83.22
70982;BME280;58640;51.320;9.456;2022-10-16T07:42:02;99351.50;;;14.77;83.92
70982;BME280;58640;51.320;9.456;2022-10-16T07:44:27;99361.28;;;14.85;84.57
70982;BME280;58640;51.320;9.456;2022-10-16T07:46:53;99368.13;;;14.68;84.87
70982;BME280;58640;51.320;9.456;2022-10-16T07:49:18;99381.44;;;14.62;84.84
70982;BME280;58640;51.320;9.456;2022-10-16T07:51:44;99389.75;;;14.61;85.16
70982;BME280;58640;51.320;9.456;2022-10-16T07:54:09;99398.13;;;14.66;85.02
70982;BME280;58640;51.320;9.456;2022-10-16T07:56:35;99394.50;;;14.52;85.94
70982;BME280;58640;51.320;9.456;2022-10-16T07:59:00;99385.91;;;14.42;85.59
70982;BME280;58640;51.320;9.456;2022-10-16T08:01:26;99390.25;;;14.30;87.01
70982;BME280;58640;51.320;9.456;2022-10-16T08:03:51;99405.22;;;14.33;87.33
70982;BME280;58640;51.320;9.456;2022-10-16T08:06:18;99404.41;;;14.32;87.74
70982;BME280;58640;51.320;9.456;2022-10-16T08:08:43;99416.94;;;14.40;87.63
70982;BME280;58640;51.320;9.456;2022-10-16T08:11:09;99419.59;;;14.33;87.30
70982;BME280;58640;51.320;9.456;2022-10-16T08:13:35;99427.06;;;14.31;87.49
70982;BME280;58640;51.320;9.456;2022-10-16T08:16:01;99434.63;;;14.42;86.47
70982;BME280;58640;51.320;9.456;2022-10-16T08:18:26;99428.44;;;14.48;86.75
70982;BME280;58640;51.320;9.456;2022-10-16T08:20:56;99436.78;;;14.53;87.00
70982;BME280;58640;51.320;9.456;2022-10-16T08:23:22;99442.31;;;14.86;85.26
70982;BME280;58640;51.320;9.456;2022-10-16T08:25:48;99431.88;;;14.77;85.34
70982;BME280;58640;51.320;9.456;2022-10-16T08:28:13;99453.38;;;14.85;85.43
70982;BME280;58640;51.320;9.456;2022-10-16T08:30:38;99454.84;;;14.94;84.60
70982;BME280;58640;51.320;9.456;2022-10-16T08:33:04;99448.19;;;14.90;84.30
70982;BME280;58640;51.320;9.456;2022-10-16T08:35:29;99446.63;;;14.68;84.97
70982;BME280;58640;51.320;9.456;2022-10-16T08:37:55;99451.84;;;14.69;84.77
70982;BME280;58640;51.320;9.456;2022-10-16T08:40:24;99459.66;;;14.51;85.71
70982;BME280;58640;51.320;9.456;2022-10-16T08:48:14;99444.34;;;14.64;84.38
70982;BME280;58640;51.320;9.456;2022-10-16T08:50:42;99445.97;;;14.59;84.67
70982;BME280;58640;51.320;9.456;2022-10-16T08:53:15;99445.97;;;14.59;85.49
